Axtel, Kentucky
Current Conditions -  °F | °C
As of 5:58 AM on Saturday 01 Nov 2014 (Local Time) from KFTK Reporting Station
Overcast Overcast  
Wind Chill: 24°   Ceiling: 2700
Heat Index: 34°   Visibility: 10mi
Dew Point: 26°   Wind: 16mph
Humidity: 73%   Direction: 330°NNW
Pressure: 30.19"   Gusts: 24mph
Location:  37.7834°N, 86.4612°W
Report Text: KFTK 011058Z AUTO 33014G21KT 10SM OVC027 01/M03 A3019 RMK AO2 SLP232 T00101034
Loading
Personal Weather Stations






























Interactive Weather Map
Tropical Storm Tracking
New forecast layout! Learn more

10-Day Weather Forecast

Advertisements
Track Severe Weather on mobile